Time;durP1;ratioP1;P1;durP2;ratioP2;P2;SDS_P1;SDS_P2;PMS_P1;PMS_P2;Temp;Humidity;BMP_temperature;BMP_pressure;BME280_temperature;BME280_humidity;BME280_pressure;Samples;Min_cycle;Max_cycle;Signal;HPM_P1;HPM_P2
2021/08/07 00:02:14;;;;;;;9.00;1.92;;;18.30;97.50;;;;;;5003280;28;20209;-71
2021/08/07 00:04:41;;;;;;;7.18;2.20;;;18.20;97.50;;;;;;5009081;28;20672;-70
2021/08/07 00:07:08;;;;;;;7.18;2.33;;;18.20;97.50;;;;;;5009566;28;20209;-71
2021/08/07 00:09:34;;;;;;;7.32;2.50;;;18.20;97.70;;;;;;5015016;28;20291;-70
2021/08/07 00:12:03;;;;;;;10.27;3.05;;;18.20;97.80;;;;;;5007620;28;20658;-72
2021/08/07 00:14:29;;;;;;;9.23;2.92;;;18.10;97.90;;;;;;5017462;28;20200;-71
2021/08/07 00:16:56;;;;;;;9.75;2.95;;;18.10;98.10;;;;;;5008713;28;20212;-72
2021/08/07 00:19:23;;;;;;;10.75;2.65;;;18.00;98.20;;;;;;5000253;28;20205;-69
2021/08/07 00:21:50;;;;;;;13.18;3.10;;;18.00;98.40;;;;;;5011266;28;20223;-69
2021/08/07 00:24:19;;;;;;;8.10;2.72;;;18.00;98.70;;;;;;5013278;28;20217;-70
2021/08/07 00:26:46;;;;;;;12.15;2.60;;;17.90;98.80;;;;;;5001697;28;20693;-69
2021/08/07 00:29:17;;;;;;;9.68;2.88;;;17.90;98.90;;;;;;5004645;28;20305;-71
2021/08/07 00:31:44;;;;;;;16.98;3.42;;;17.80;99.10;;;;;;5001870;28;20267;-72
2021/08/07 00:34:11;;;;;;;9.35;2.75;;;17.80;99.20;;;;;;5001199;28;20554;-69
2021/08/07 00:36:39;;;;;;;15.80;3.20;;;17.70;99.40;;;;;;5008963;28;20256;-69
2021/08/07 00:39:06;;;;;;;13.05;3.00;;;17.70;99.60;;;;;;5011979;28;20208;-71
2021/08/07 00:41:34;;;;;;;15.68;3.47;;;17.70;99.80;;;;;;5009844;28;20207;-70
2021/08/07 00:44:01;;;;;;;12.20;3.53;;;17.70;99.90;;;;;;5002466;28;20673;-71
2021/08/07 00:46:36;;;;;;;13.95;3.30;;;17.60;99.90;;;;;;5011384;28;20228;-70
2021/08/07 00:49:05;;;;;;;9.52;3.05;;;17.60;99.90;;;;;;5006058;28;20777;-71
2021/08/07 00:51:33;;;;;;;15.98;3.38;;;17.50;99.90;;;;;;5021619;28;20220;-71
2021/08/07 00:54:05;;;;;;;14.15;3.10;;;17.50;99.90;;;;;;5000555;28;20207;-71
2021/08/07 00:56:33;;;;;;;11.23;3.20;;;17.50;99.90;;;;;;5009492;28;20197;-69
2021/08/07 00:59:12;;;;;;;10.00;3.35;;;17.40;99.90;;;;;;5008192;28;20287;-69
2021/08/07 01:01:45;;;;;;;13.25;3.40;;;17.40;99.90;;;;;;5010552;28;20204;-68
2021/08/07 01:04:21;;;;;;;11.82;2.78;;;17.30;99.90;;;;;;5012268;28;20200;-71
2021/08/07 01:06:55;;;;;;;17.90;4.05;;;17.30;99.90;;;;;;5008836;28;20220;-69
2021/08/07 01:09:29;;;;;;;14.18;3.10;;;17.30;99.90;;;;;;5008750;28;20748;-70
2021/08/07 01:12:04;;;;;;;11.52;2.88;;;17.20;99.90;;;;;;5005053;28;20287;-70
2021/08/07 01:14:43;;;;;;;13.55;3.10;;;17.20;99.90;;;;;;5003559;28;20222;-68
2021/08/07 01:17:15;;;;;;;10.38;3.22;;;17.20;99.90;;;;;;5012141;28;20209;-70
2021/08/07 01:19:54;;;;;;;18.40;3.50;;;17.10;99.90;;;;;;5011687;28;20212;-70
2021/08/07 01:22:33;;;;;;;12.13;3.08;;;17.10;99.90;;;;;;5009046;28;20673;-69
2021/08/07 01:25:04;;;;;;;10.73;3.10;;;17.10;99.90;;;;;;5014123;28;20201;-70
2021/08/07 01:27:40;;;;;;;12.18;3.38;;;17.10;99.90;;;;;;5011723;28;20204;-69
2021/08/07 01:30:22;;;;;;;14.82;3.00;;;17.00;99.90;;;;;;5008148;28;20324;-69
2021/08/07 01:32:50;;;;;;;15.25;3.67;;;17.00;99.90;;;;;;5012344;28;20291;-70
2021/08/07 01:35:20;;;;;;;14.90;3.38;;;17.00;99.90;;;;;;5013593;28;20204;-71
2021/08/07 01:37:51;;;;;;;14.43;3.50;;;16.90;99.90;;;;;;5002875;28;20201;-70
2021/08/07 01:40:53;;;;;;;11.60;2.83;;;16.90;99.90;;;;;;4992407;28;20219;-68
2021/08/07 01:43:25;;;;;;;15.60;3.58;;;16.90;99.90;;;;;;5010290;28;20207;-70
2021/08/07 01:45:55;;;;;;;16.08;3.40;;;16.80;99.90;;;;;;5013201;28;20653;-69
2021/08/07 01:48:34;;;;;;;13.23;3.33;;;16.80;99.90;;;;;;5012324;28;20208;-70
2021/08/07 01:51:14;;;;;;;14.95;3.38;;;16.80;99.90;;;;;;5008876;28;20625;-70
2021/08/07 01:53:51;;;;;;;14.05;3.10;;;16.80;99.90;;;;;;5012440;28;20224;-71
2021/08/07 01:56:25;;;;;;;20.15;3.35;;;16.80;99.90;;;;;;5012555;28;20208;-69
2021/08/07 01:58:58;;;;;;;12.80;2.70;;;16.70;99.90;;;;;;5011413;28;20208;-71
2021/08/07 02:01:31;;;;;;;16.58;3.58;;;16.70;99.90;;;;;;5007993;28;20211;-71
2021/08/07 02:04:01;;;;;;;13.90;3.17;;;16.70;99.90;;;;;;5009719;28;20215;-69
2021/08/07 02:06:35;;;;;;;16.80;3.10;;;16.70;99.90;;;;;;5012938;28;20212;-70
2021/08/07 02:09:03;;;;;;;16.75;3.42;;;16.60;99.90;;;;;;5008055;28;20582;-69
2021/08/07 02:11:44;;;;;;;18.85;3.50;;;16.60;99.90;;;;;;5012287;28;20286;-71
2021/08/07 02:14:16;;;;;;;15.85;3.30;;;16.60;99.90;;;;;;5014814;28;20561;-71
2021/08/07 02:16:45;;;;;;;12.88;2.75;;;16.60;99.90;;;;;;5009605;28;20208;-69
2021/08/07 02:19:13;;;;;;;16.23;3.67;;;16.60;99.90;;;;;;5007466;28;20200;-69
2021/08/07 02:21:42;;;;;;;17.48;3.50;;;16.50;99.90;;;;;;5012223;28;20702;-71
2021/08/07 02:24:12;;;;;;;19.75;3.70;;;16.50;99.90;;;;;;5011661;28;20603;-71
2021/08/07 02:26:43;;;;;;;15.43;3.30;;;16.50;99.90;;;;;;5009933;28;20224;-70
2021/08/07 02:29:10;;;;;;;22.27;3.65;;;16.40;99.90;;;;;;5010173;28;20209;-68
2021/08/07 02:31:48;;;;;;;16.63;3.28;;;16.40;99.90;;;;;;5012043;28;20208;-69
2021/08/07 02:34:16;;;;;;;13.35;3.20;;;16.40;99.90;;;;;;5012143;28;20212;-71
2021/08/07 02:36:45;;;;;;;17.67;3.40;;;16.40;99.90;;;;;;5014356;28;20280;-71
2021/08/07 02:39:19;;;;;;;18.40;3.38;;;16.40;99.90;;;;;;5010056;28;20712;-69
2021/08/07 02:41:46;;;;;;;14.13;3.00;;;16.30;99.90;;;;;;5010936;28;20830;-69
2021/08/07 02:44:16;;;;;;;14.27;3.55;;;16.30;99.90;;;;;;5010348;28;20287;-69
2021/08/07 02:46:44;;;;;;;20.02;3.47;;;16.30;99.90;;;;;;5010395;28;20227;-69
2021/08/07 02:49:16;;;;;;;16.40;3.20;;;16.30;99.90;;;;;;5006367;28;20574;-71
2021/08/07 02:51:43;;;;;;;18.30;3.60;;;16.30;99.90;;;;;;5008914;28;20208;-69
2021/08/07 02:54:11;;;;;;;12.35;3.20;;;16.20;99.90;;;;;;5009635;28;20236;-69
2021/08/07 02:56:39;;;;;;;26.83;3.30;;;16.20;99.90;;;;;;5009193;28;20580;-69
2021/08/07 02:59:06;;;;;;;17.67;3.33;;;16.20;99.90;;;;;;5010508;28;20200;-70
2021/08/07 03:01:36;;;;;;;21.45;3.50;;;16.20;99.90;;;;;;5013479;28;20204;-71
2021/08/07 03:04:04;;;;;;;13.73;3.20;;;16.20;99.90;;;;;;5010133;28;20204;-72
2021/08/07 03:06:33;;;;;;;24.63;3.88;;;16.20;99.90;;;;;;5011146;28;20682;-68
2021/08/07 03:09:03;;;;;;;20.88;3.28;;;16.20;99.90;;;;;;5009179;28;20199;-67
2021/08/07 03:11:32;;;;;;;18.30;3.30;;;16.20;99.90;;;;;;5011055;28;20228;-68
2021/08/07 03:14:04;;;;;;;12.63;3.38;;;16.10;99.90;;;;;;5013601;28;20197;-70
2021/08/07 03:16:36;;;;;;;12.90;3.40;;;16.10;99.90;;;;;;5010541;28;20196;-69
2021/08/07 03:19:06;;;;;;;11.35;2.80;;;16.10;99.90;;;;;;5011292;28;20625;-70
2021/08/07 03:21:35;;;;;;;16.10;3.45;;;16.10;99.90;;;;;;5009570;28;20729;-71
2021/08/07 03:24:05;;;;;;;14.25;3.42;;;16.10;99.90;;;;;;5010138;28;20198;-71
2021/08/07 03:26:35;;;;;;;13.23;3.00;;;16.10;99.90;;;;;;5011863;28;20216;-71
2021/08/07 03:29:09;;;;;;;18.08;3.85;;;16.20;99.90;;;;;;5010152;28;21885;-68
2021/08/07 03:31:37;;;;;;;12.45;3.00;;;16.10;99.90;;;;;;5009408;28;20688;-70
2021/08/07 03:34:05;;;;;;;13.63;3.17;;;16.10;99.90;;;;;;5009570;28;20619;-71
2021/08/07 03:36:32;;;;;;;14.07;3.40;;;16.10;99.90;;;;;;5013133;28;20663;-70
2021/08/07 03:39:04;;;;;;;11.75;3.03;;;16.10;99.90;;;;;;5009178;28;20260;-71
2021/08/07 03:41:31;;;;;;;13.52;3.42;;;16.10;99.90;;;;;;5010667;28;20201;-70
2021/08/07 03:43:59;;;;;;;17.05;3.75;;;16.10;99.90;;;;;;5011334;28;20208;-70
2021/08/07 03:46:27;;;;;;;12.27;3.20;;;16.00;99.90;;;;;;5007522;28;20224;-71
2021/08/07 03:48:55;;;;;;;16.17;3.72;;;16.00;99.90;;;;;;5008613;28;20574;-70
2021/08/07 03:51:23;;;;;;;13.50;3.50;;;16.00;99.90;;;;;;5011745;28;20220;-71
2021/08/07 03:53:50;;;;;;;17.90;3.83;;;16.00;99.90;;;;;;5013111;28;20311;-70
2021/08/07 03:56:27;;;;;;;20.80;4.07;;;16.00;99.90;;;;;;5012029;28;20207;-70
2021/08/07 03:58:56;;;;;;;18.15;4.97;;;16.00;99.90;;;;;;5010588;28;20212;-69
2021/08/07 04:01:25;;;;;;;20.65;9.55;;;15.90;99.90;;;;;;5009042;28;20209;-70
2021/08/07 04:03:54;;;;;;;17.60;4.10;;;15.90;99.90;;;;;;5005739;28;20236;-68
2021/08/07 04:06:21;;;;;;;20.70;3.85;;;15.90;99.90;;;;;;5009793;28;20216;-67
2021/08/07 04:08:49;;;;;;;20.40;8.65;;;15.90;99.90;;;;;;5011972;28;20573;-70
2021/08/07 04:11:17;;;;;;;19.77;8.90;;;15.90;99.90;;;;;;5007784;28;20240;-68
2021/08/07 04:13:54;;;;;;;18.67;4.20;;;15.90;99.90;;;;;;5009647;28;20672;-70
2021/08/07 04:16:23;;;;;;;20.00;4.07;;;15.90;99.90;;;;;;5006547;28;20205;-71
2021/08/07 04:18:50;;;;;;;18.52;4.70;;;15.90;99.90;;;;;;5009730;28;20696;-69
2021/08/07 04:21:19;;;;;;;12.55;4.75;;;15.90;99.90;;;;;;5009070;28;20208;-67
2021/08/07 04:23:46;;;;;;;16.17;4.35;;;15.90;99.90;;;;;;5006616;28;20693;-67
2021/08/07 04:26:13;;;;;;;16.77;4.60;;;15.90;99.90;;;;;;5003725;28;20255;-69
2021/08/07 04:28:43;;;;;;;14.38;4.70;;;15.90;99.90;;;;;;5011406;28;20200;-70
2021/08/07 04:31:11;;;;;;;19.00;5.05;;;15.80;99.90;;;;;;5010322;28;20276;-69
2021/08/07 04:33:38;;;;;;;18.10;5.00;;;15.80;99.90;;;;;;5005481;28;20462;-70
2021/08/07 04:36:08;;;;;;;13.93;4.95;;;15.80;99.90;;;;;;5005783;28;20724;-70
2021/08/07 04:38:35;;;;;;;15.38;5.10;;;15.80;99.90;;;;;;5006695;28;20208;-72
2021/08/07 04:41:02;;;;;;;13.30;4.72;;;15.80;99.90;;;;;;5004001;28;20208;-69
2021/08/07 04:43:35;;;;;;;17.08;4.25;;;15.80;99.90;;;;;;4999500;28;20201;-68
2021/08/07 04:46:03;;;;;;;13.95;4.20;;;15.80;99.90;;;;;;5005058;28;20200;-69
2021/08/07 04:48:32;;;;;;;15.07;4.55;;;15.80;99.90;;;;;;5008541;28;20196;-70
2021/08/07 04:51:05;;;;;;;18.27;4.53;;;15.80;99.90;;;;;;5005178;28;20204;-70
2021/08/07 04:53:37;;;;;;;16.45;4.38;;;15.80;99.90;;;;;;5008399;28;20282;-71
2021/08/07 04:56:10;;;;;;;16.85;4.25;;;15.80;99.90;;;;;;5006547;28;20663;-69
2021/08/07 04:58:36;;;;;;;18.63;3.90;;;15.80;99.90;;;;;;5006819;28;20215;-70
2021/08/07 05:01:06;;;;;;;16.52;4.53;;;15.80;99.90;;;;;;5005725;28;20255;-70
2021/08/07 05:03:36;;;;;;;12.90;4.15;;;15.80;99.90;;;;;;5002985;28;20211;-70
2021/08/07 05:06:06;;;;;;;14.63;4.18;;;15.80;99.90;;;;;;5009377;28;20212;-69
2021/08/07 05:08:37;;;;;;;16.60;4.45;;;15.80;99.90;;;;;;5004504;28;20233;-68
2021/08/07 05:11:04;;;;;;;15.02;4.03;;;15.90;99.90;;;;;;5011329;28;20258;-68
2021/08/07 05:13:32;;;;;;;17.35;4.00;;;15.90;99.90;;;;;;5005554;28;20673;-69
2021/08/07 05:16:00;;;;;;;10.95;3.63;;;16.00;99.90;;;;;;5005153;28;20300;-69
2021/08/07 05:18:27;;;;;;;13.23;3.55;;;16.00;99.90;;;;;;5005877;28;20207;-69
2021/08/07 05:20:56;;;;;;;19.38;3.58;;;16.00;99.90;;;;;;5000900;28;20212;-68
2021/08/07 05:23:23;;;;;;;17.20;4.15;;;16.00;99.90;;;;;;5004784;28;20287;-68
2021/08/07 05:25:50;;;;;;;19.25;3.65;;;16.00;99.90;;;;;;5002662;28;20570;-69
2021/08/07 05:28:17;;;;;;;10.95;3.35;;;16.00;99.90;;;;;;5001802;28;20212;-68
2021/08/07 05:30:46;;;;;;;15.50;2.95;;;16.00;99.90;;;;;;5008292;28;20196;-70
2021/08/07 05:33:13;;;;;;;17.90;3.22;;;16.10;99.90;;;;;;5004456;28;20196;-72
2021/08/07 05:35:40;;;;;;;15.05;3.35;;;16.10;99.90;;;;;;5001516;28;20204;-68
2021/08/07 05:38:12;;;;;;;16.25;3.58;;;16.10;99.90;;;;;;5005929;28;20200;-70
2021/08/07 05:40:39;;;;;;;10.43;3.17;;;16.10;99.90;;;;;;5005504;28;20578;-70
2021/08/07 05:43:06;;;;;;;16.55;3.63;;;16.20;99.90;;;;;;4997244;28;20348;-69
2021/08/07 05:45:34;;;;;;;9.68;3.30;;;16.20;99.90;;;;;;5009691;28;20231;-71
2021/08/07 05:48:01;;;;;;;15.30;3.90;;;16.20;99.90;;;;;;5002147;28;20223;-70
2021/08/07 05:50:30;;;;;;;17.15;3.28;;;16.20;99.90;;;;;;5002047;28;20630;-70
2021/08/07 05:52:57;;;;;;;19.08;3.70;;;16.30;99.90;;;;;;5009178;28;20679;-70
2021/08/07 05:55:26;;;;;;;14.80;3.22;;;16.20;99.90;;;;;;5003743;28;20209;-67
2021/08/07 05:57:52;;;;;;;15.75;4.10;;;16.30;99.90;;;;;;5000254;28;20209;-66
2021/08/07 06:00:20;;;;;;;15.85;3.85;;;16.30;99.90;;;;;;5005526;28;20207;-70
2021/08/07 06:02:53;;;;;;;14.85;4.15;;;16.40;99.90;;;;;;5006619;28;20236;-68
2021/08/07 06:05:36;;;;;;;15.43;3.97;;;16.40;99.90;;;;;;5010517;28;20208;-66
2021/08/07 06:08:06;;;;;;;15.68;3.83;;;16.50;99.90;;;;;;5004377;28;20235;-69
2021/08/07 06:10:36;;;;;;;14.77;4.05;;;16.50;99.90;;;;;;5004132;28;20264;-67
2021/08/07 06:13:03;;;;;;;17.98;3.90;;;16.60;99.90;;;;;;5000650;28;20205;-68
2021/08/07 06:15:31;;;;;;;11.52;3.65;;;16.60;99.90;;;;;;5009011;28;20209;-66
2021/08/07 06:18:00;;;;;;;17.20;4.13;;;16.70;99.90;;;;;;5002466;28;20205;-68
2021/08/07 06:20:28;;;;;;;14.50;3.55;;;16.70;99.90;;;;;;5005927;28;20681;-66
2021/08/07 06:22:56;;;;;;;15.50;3.95;;;16.70;99.90;;;;;;5009291;28;20208;-68
2021/08/07 06:25:23;;;;;;;10.38;3.92;;;16.80;99.90;;;;;;5004544;28;20197;-69
2021/08/07 06:27:54;;;;;;;11.35;3.88;;;16.80;99.90;;;;;;5003515;28;20216;-67
2021/08/07 06:30:21;;;;;;;18.10;3.67;;;16.80;99.90;;;;;;5009115;28;20307;-67
2021/08/07 06:32:48;;;;;;;20.23;5.75;;;16.90;99.90;;;;;;5004014;28;21259;-67
2021/08/07 06:35:15;;;;;;;16.10;4.38;;;16.90;99.90;;;;;;5008754;28;20226;-67
2021/08/07 06:37:43;;;;;;;14.27;4.18;;;16.90;99.90;;;;;;5005688;28;20546;-66
2021/08/07 06:40:12;;;;;;;15.68;3.95;;;17.00;99.90;;;;;;5004490;28;20200;-68
2021/08/07 06:42:43;;;;;;;9.90;3.42;;;17.00;99.90;;;;;;5009883;28;20216;-69
2021/08/07 06:45:30;;;;;;;17.27;3.97;;;17.00;99.90;;;;;;5005237;28;20735;-70
2021/08/07 06:48:01;;;;;;;15.95;3.88;;;17.10;99.90;;;;;;5012288;28;20644;-70
2021/08/07 06:50:29;;;;;;;14.07;3.20;;;17.20;99.90;;;;;;5017891;28;20291;-70
2021/08/07 06:52:56;;;;;;;;;;;17.30;99.90;;;;;;5002124;28;20220;-70
2021/08/07 06:55:23;;;;;;;12.75;3.17;;;17.30;99.90;;;;;;5002314;28;20245;-69
2021/08/07 06:57:50;;;;;;;13.35;3.75;;;17.40;99.90;;;;;;5013687;28;20199;-70
2021/08/07 07:00:18;;;;;;;18.25;3.70;;;17.40;99.90;;;;;;5004063;28;20211;-71
2021/08/07 07:02:50;;;;;;;11.55;4.07;;;17.40;99.90;;;;;;5010896;28;20295;-71
2021/08/07 07:05:18;;;;;;;13.32;4.53;;;17.40;99.90;;;;;;5006778;28;20304;-72
2021/08/07 07:07:46;;;;;;;11.80;3.38;;;17.40;99.90;;;;;;5003524;28;20655;-70
2021/08/07 07:10:15;;;;;;;14.63;3.50;;;17.40;99.90;;;;;;5007904;28;20236;-72
2021/08/07 07:12:43;;;;;;;16.80;4.43;;;17.50;99.90;;;;;;5014321;28;20672;-71
2021/08/07 07:15:11;;;;;;;13.10;4.07;;;17.40;99.90;;;;;;5012684;28;20239;-70
2021/08/07 07:17:40;;;;;;;13.10;4.00;;;17.40;99.90;;;;;;5012585;28;20196;-71
2021/08/07 07:20:09;;;;;;;15.98;4.55;;;17.50;99.90;;;;;;5009448;28;20208;-69
2021/08/07 07:22:38;;;;;;;16.98;3.83;;;17.50;99.90;;;;;;5013209;28;20255;-73
2021/08/07 07:25:07;;;;;;;12.18;3.75;;;17.60;99.90;;;;;;5013057;28;20680;-71
2021/08/07 07:27:34;;;;;;;10.00;3.13;;;17.70;99.90;;;;;;5011929;28;20220;-70
2021/08/07 07:30:01;;;;;;;13.65;3.47;;;17.80;99.90;;;;;;5001120;28;20218;-71
2021/08/07 07:32:28;;;;;;;14.20;3.17;;;17.90;99.90;;;;;;5006650;28;20254;-69
2021/08/07 07:34:55;;;;;;;12.35;3.45;;;18.00;99.90;;;;;;4998450;28;20209;-70
2021/08/07 07:37:25;;;;;;;17.10;3.15;;;18.10;99.90;;;;;;5007691;28;20263;-69
2021/08/07 07:39:52;;;;;;;14.07;2.95;;;18.20;99.90;;;;;;5014747;28;20678;-72
2021/08/07 07:42:19;;;;;;;13.65;2.83;;;18.30;99.90;;;;;;5007164;28;20270;-68
2021/08/07 07:44:46;;;;;;;11.70;2.85;;;18.40;99.90;;;;;;5002428;28;20228;-70
2021/08/07 07:47:13;;;;;;;10.60;2.45;;;18.50;99.90;;;;;;5009385;28;20731;-70
2021/08/07 07:49:41;;;;;;;7.13;2.60;;;18.60;99.90;;;;;;5008937;28;20198;-70
2021/08/07 07:52:11;;;;;;;12.32;3.00;;;18.70;99.90;;;;;;5009202;28;20196;-71
2021/08/07 07:54:42;;;;;;;6.82;2.40;;;18.70;99.90;;;;;;5007381;28;20197;-68
2021/08/07 07:57:09;;;;;;;10.98;2.47;;;18.80;99.90;;;;;;5008420;28;20211;-70
2021/08/07 07:59:37;;;;;;;13.60;2.95;;;18.90;99.90;;;;;;5010738;28;20208;-70
2021/08/07 08:02:05;;;;;;;7.65;2.25;;;18.90;99.90;;;;;;5004691;28;20660;-68
2021/08/07 08:04:33;;;;;;;8.73;2.60;;;18.90;99.90;;;;;;5002840;28;20668;-70
2021/08/07 08:07:01;;;;;;;10.60;2.38;;;19.00;99.90;;;;;;5007855;28;20259;-70
2021/08/07 08:09:29;;;;;;;8.48;2.42;;;19.10;99.90;;;;;;5009981;28;20288;-70
2021/08/07 08:11:57;;;;;;;7.75;1.90;;;19.20;99.90;;;;;;5007765;28;20212;-71
2021/08/07 08:14:24;;;;;;;8.15;2.05;;;19.40;99.90;;;;;;5008704;28;20211;-68
2021/08/07 08:16:51;;;;;;;8.23;2.00;;;19.50;99.70;;;;;;5019183;28;20207;-70
2021/08/07 08:19:18;;;;;;;9.07;2.30;;;19.60;99.30;;;;;;5005989;28;20251;-72
2021/08/07 08:21:45;;;;;;;10.55;2.03;;;19.70;99.20;;;;;;5013100;28;20218;-71
2021/08/07 08:24:12;;;;;;;12.70;2.20;;;19.80;99.60;;;;;;5006350;28;20211;-69
2021/08/07 08:26:40;;;;;;;8.88;1.90;;;20.10;99.90;;;;;;5007645;28;20223;-69
2021/08/07 08:29:09;;;;;;;7.68;1.88;;;20.60;99.90;;;;;;5007181;28;20201;-69
2021/08/07 08:31:36;;;;;;;7.47;2.00;;;21.10;99.00;;;;;;5006015;28;20647;-69
2021/08/07 08:34:03;;;;;;;;;;;21.40;97.30;;;;;;5002659;28;20150;-68
2021/08/07 08:36:30;;;;;;;5.30;1.70;;;21.40;96.50;;;;;;5002692;28;20216;-70
2021/08/07 08:38:57;;;;;;;8.70;1.83;;;21.40;95.70;;;;;;5011874;28;20563;-69
2021/08/07 08:41:24;;;;;;;7.80;1.90;;;21.30;95.20;;;;;;5008010;28;20247;-67
2021/08/07 08:43:53;;;;;;;9.50;2.20;;;21.20;94.80;;;;;;5011012;28;20212;-69
2021/08/07 08:46:21;;;;;;;7.72;2.13;;;21.00;94.50;;;;;;5010760;28;20554;-69
2021/08/07 08:48:48;;;;;;;9.18;2.30;;;20.80;94.60;;;;;;5006856;28;20224;-65
2021/08/07 08:51:16;;;;;;;10.18;2.13;;;20.70;95.00;;;;;;5011834;28;20197;-71
2021/08/07 08:53:45;;;;;;;5.80;1.70;;;20.50;95.30;;;;;;5007525;28;20244;-69
2021/08/07 08:56:12;;;;;;;7.00;1.95;;;20.30;95.60;;;;;;5007218;28;20216;-69
2021/08/07 08:58:40;;;;;;;6.82;2.30;;;20.30;96.10;;;;;;5009675;28;20192;-70
2021/08/07 09:01:08;;;;;;;5.45;2.00;;;20.40;97.00;;;;;;5010574;28;20208;-69
2021/08/07 09:03:38;;;;;;;4.28;1.80;;;21.10;97.50;;;;;;5008971;28;20295;-71
2021/08/07 09:06:06;;;;;;;4.93;1.80;;;21.90;96.50;;;;;;5003513;28;20211;-72
2021/08/07 09:08:33;;;;;;;7.32;2.17;;;22.40;95.10;;;;;;5008828;28;20230;-69
2021/08/07 09:11:19;;;;;;;3.50;1.90;;;22.60;94.10;;;;;;5009144;28;20275;-69
2021/08/07 09:13:51;;;;;;;7.38;2.17;;;22.70;93.20;;;;;;5008734;28;20619;-68
2021/08/07 09:16:18;;;;;;;4.40;1.60;;;23.00;93.00;;;;;;5004454;28;20572;-69
2021/08/07 09:18:56;;;;;;;3.85;1.90;;;23.40;92.30;;;;;;5003341;28;20582;-69
2021/08/07 09:21:22;;;;;;;;;;;23.80;90.60;;;;;;5012475;28;20573;-71
2021/08/07 09:24:06;;;;;;;;;;;23.80;90.20;;;;;;5005525;28;19966;-72
2021/08/07 09:26:33;;;;;;;5.15;1.92;;;23.70;89.70;;;;;;5013863;28;20205;-69
2021/08/07 09:29:01;;;;;;;3.72;1.60;;;23.60;89.00;;;;;;5002828;28;20216;-68
2021/08/07 09:31:58;;;;;;;7.60;1.92;;;23.60;88.20;;;;;;5007827;28;20208;-69
2021/08/07 09:34:27;;;;;;;4.80;1.58;;;23.60;87.10;;;;;;5009082;28;20632;-71
2021/08/07 09:36:58;;;;;;;4.85;1.80;;;24.10;87.40;;;;;;5009292;28;20294;-68
2021/08/07 09:39:39;;;;;;;5.40;1.60;;;25.00;85.70;;;;;;5008359;28;20208;-70
2021/08/07 09:42:09;;;;;;;5.53;1.23;;;26.00;81.30;;;;;;5006187;28;20299;-70
2021/08/07 09:44:38;;;;;;;4.25;1.38;;;26.70;78.70;;;;;;5005417;28;20232;-70
2021/08/07 09:47:08;;;;;;;6.47;1.80;;;27.00;74.90;;;;;;5009970;28;20754;-69
2021/08/07 09:49:38;;;;;;;4.03;1.40;;;27.20;73.00;;;;;;5009008;28;20234;-69
2021/08/07 09:52:06;;;;;;;4.63;1.50;;;27.30;70.30;;;;;;5007074;28;20205;-69
2021/08/07 09:54:38;;;;;;;4.15;1.30;;;27.00;68.40;;;;;;5008495;28;20299;-70
2021/08/07 09:57:06;;;;;;;4.38;1.40;;;27.00;68.00;;;;;;5007517;28;20266;-70
2021/08/07 09:59:45;;;;;;;4.10;1.38;;;26.90;66.80;;;;;;5006937;28;20228;-69
2021/08/07 10:02:21;;;;;;;4.00;1.23;;;27.00;66.00;;;;;;5000361;28;20208;-70
2021/08/07 10:04:52;;;;;;;7.05;1.80;;;27.40;65.20;;;;;;5001869;28;20290;-69
2021/08/07 10:07:19;;;;;;;5.82;1.50;;;27.70;64.30;;;;;;5009837;28;20682;-69
2021/08/07 10:09:51;;;;;;;6.25;1.20;;;28.50;62.60;;;;;;5011641;28;20316;-70
2021/08/07 10:12:18;;;;;;;5.25;0.95;;;29.30;59.30;;;;;;5011327;28;20298;-70
2021/08/07 10:14:53;;;;;;;6.03;1.60;;;30.00;57.50;;;;;;5010629;28;20203;-69
2021/08/07 10:17:23;;;;;;;2.97;0.88;;;30.50;55.40;;;;;;5011544;28;20208;-70
2021/08/07 10:19:52;;;;;;;4.10;1.20;;;30.50;53.10;;;;;;5011027;28;20288;-69
2021/08/07 10:22:21;;;;;;;3.97;1.27;;;29.70;53.20;;;;;;5008792;28;20196;-68
2021/08/07 10:24:54;;;;;;;4.07;1.63;;;28.80;54.30;;;;;;5010598;28;20212;-67
2021/08/07 10:27:23;;;;;;;6.32;1.45;;;28.10;55.50;;;;;;5007887;28;20632;-69
2021/08/07 10:30:00;;;;;;;3.72;1.30;;;27.50;57.00;;;;;;5009159;28;20226;-70
2021/08/07 10:32:29;;;;;;;5.97;1.40;;;26.90;58.60;;;;;;5013096;28;20196;-70
2021/08/07 10:35:00;;;;;;;4.90;1.23;;;27.20;59.70;;;;;;5011755;28;20714;-68
2021/08/07 10:37:28;;;;;;;4.50;1.40;;;27.80;59.10;;;;;;5011085;28;20201;-69
2021/08/07 10:39:55;;;;;;;4.18;1.40;;;28.50;58.00;;;;;;5008076;28;20636;-68
2021/08/07 10:42:23;;;;;;;6.10;1.80;;;29.20;56.80;;;;;;5008577;28;20218;-69
2021/08/07 10:44:52;;;;;;;6.45;1.33;;;30.00;55.40;;;;;;5013173;28;20211;-70
2021/08/07 10:47:35;;;;;;;5.43;1.60;;;30.20;53.80;;;;;;5012020;28;20211;-68
2021/08/07 10:50:30;;;;;;;4.50;1.48;;;30.20;53.90;;;;;;5011484;28;20216;-71
2021/08/07 10:53:01;;;;;;;4.72;1.60;;;30.60;51.10;;;;;;5008563;28;20971;-68
2021/08/07 10:55:45;;;;;;;4.57;1.52;;;31.20;52.10;;;;;;5011921;28;20254;-69
2021/08/07 10:58:33;;;;;;;4.05;1.75;;;31.60;50.80;;;;;;5013170;28;20293;-70
2021/08/07 11:01:34;;;;;;;4.90;1.65;;;31.90;49.20;;;;;;5008783;28;20200;-70
2021/08/07 11:04:23;;;;;;;3.13;1.50;;;31.80;48.90;;;;;;5008903;28;20216;-69
2021/08/07 11:06:52;;;;;;;;;;;31.20;48.50;;;;;;5007073;28;20278;-69
2021/08/07 11:09:24;;;;;;;4.43;1.38;;;30.70;49.40;;;;;;5011191;28;20559;-70
2021/08/07 11:12:21;;;;;;;5.88;1.50;;;30.70;49.40;;;;;;5010279;28;20258;-71
2021/08/07 11:14:51;;;;;;;5.25;1.40;;;30.60;48.00;;;;;;5009057;28;20204;-69
2021/08/07 11:17:26;;;;;;;4.05;1.38;;;30.70;48.80;;;;;;5008801;28;20226;-69
2021/08/07 11:19:56;;;;;;;4.22;1.40;;;30.90;47.50;;;;;;5007490;28;20211;-69
2021/08/07 11:23:08;;;;;;;3.33;1.35;;;30.90;47.40;;;;;;5011272;28;20207;-70
2021/08/07 11:26:02;;;;;;;5.50;1.90;;;30.70;46.00;;;;;;5011777;28;20241;-69
2021/08/07 11:28:29;;;;;;;7.05;1.60;;;30.20;48.20;;;;;;5007368;28;20639;-70
2021/08/07 11:31:29;;;;;;;5.20;1.40;;;30.30;48.10;;;;;;5009728;28;20610;-69
2021/08/07 11:34:26;;;;;;;5.72;2.10;;;30.70;47.30;;;;;;4950130;28;20245;-69
2021/08/07 11:37:24;;;;;;;4.45;1.70;;;30.80;46.60;;;;;;4920028;28;20800;-68
2021/08/07 11:40:16;;;;;;;6.20;1.75;;;30.80;46.20;;;;;;4996544;28;20549;-67
2021/08/07 11:42:47;;;;;;;3.53;1.45;;;30.70;46.50;;;;;;5007142;28;20210;-69
2021/08/07 11:45:20;;;;;;;6.68;2.00;;;30.50;46.80;;;;;;5008794;28;20208;-70
2021/08/07 11:47:49;;;;;;;4.88;1.90;;;30.60;47.10;;;;;;5009269;28;20211;-70
2021/08/07 11:50:17;;;;;;;7.25;2.60;;;30.80;46.50;;;;;;5010516;28;20679;-71
2021/08/07 11:52:44;;;;;;;4.95;1.98;;;30.70;46.40;;;;;;5007840;28;20044;-70
2021/08/07 11:55:11;;;;;;;6.15;1.92;;;30.40;46.70;;;;;;5008021;28;20200;-70
2021/08/07 11:57:38;;;;;;;5.55;1.88;;;30.40;46.60;;;;;;5007521;28;20226;-70
2021/08/07 12:00:26;;;;;;;;;;;30.60;46.70;;;;;;5009236;28;20204;-68
2021/08/07 12:03:03;;;;;;;4.05;1.60;;;30.50;46.30;;;;;;5007991;28;20208;-69
2021/08/07 12:05:31;;;;;;;6.80;1.83;;;30.40;45.90;;;;;;5008839;28;20199;-68
2021/08/07 12:08:00;;;;;;;3.90;1.73;;;30.50;46.20;;;;;;5015590;28;20203;-69
2021/08/07 12:10:27;;;;;;;4.57;1.17;;;30.70;45.80;;;;;;5009449;28;20251;-69
2021/08/07 12:12:54;;;;;;;4.53;1.23;;;30.70;44.70;;;;;;5011644;28;20212;-71
2021/08/07 12:15:21;;;;;;;3.85;1.27;;;30.60;44.20;;;;;;5011732;28;20242;-69
2021/08/07 12:17:50;;;;;;;3.10;1.40;;;30.30;43.60;;;;;;5006609;28;20530;-69
2021/08/07 12:20:18;;;;;;;3.65;1.40;;;30.30;43.60;;;;;;5008128;28;20240;-68
2021/08/07 12:22:56;;;;;;;5.15;1.40;;;30.10;43.30;;;;;;5014187;28;20204;-69
2021/08/07 12:25:23;;;;;;;6.28;1.70;;;29.50;43.60;;;;;;5007104;28;20741;-69
2021/08/07 12:28:05;;;;;;;3.53;1.30;;;29.10;44.50;;;;;;5011294;28;20208;-68
2021/08/07 12:30:32;;;;;;;3.72;1.20;;;28.90;44.50;;;;;;5006800;28;20223;-72
2021/08/07 12:33:19;;;;;;;7.38;1.33;;;29.00;44.40;;;;;;5008295;28;20231;-71
2021/08/07 12:35:47;;;;;;;4.93;1.60;;;29.10;43.60;;;;;;5008149;28;20192;-70
2021/08/07 12:38:19;;;;;;;3.88;1.23;;;29.10;44.00;;;;;;5012155;28;20215;-68
2021/08/07 12:40:48;;;;;;;12.23;1.27;;;29.30;44.10;;;;;;5008598;28;20243;-70
2021/08/07 12:43:15;;;;;;;4.68;1.50;;;29.50;44.40;;;;;;5006611;28;20270;-70
2021/08/07 12:45:42;;;;;;;5.10;1.00;;;29.70;44.00;;;;;;5008794;28;20254;-69
2021/08/07 12:48:09;;;;;;;4.45;1.15;;;29.80;43.60;;;;;;5008245;28;20215;-69
2021/08/07 12:50:37;;;;;;;3.78;1.20;;;30.00;43.40;;;;;;5011120;28;20676;-69
2021/08/07 12:53:06;;;;;;;3.25;1.20;;;30.00;42.90;;;;;;5008195;28;20210;-69
2021/08/07 12:55:34;;;;;;;3.45;1.23;;;29.90;42.60;;;;;;5011443;28;20294;-69
2021/08/07 12:58:15;;;;;;;3.60;1.10;;;29.80;42.70;;;;;;5006453;28;20207;-68
2021/08/07 13:00:42;;;;;;;3.13;1.00;;;29.50;43.20;;;;;;5008631;28;20532;-72
2021/08/07 13:03:10;;;;;;;4.15;1.10;;;29.10;43.40;;;;;;5007870;28;20250;-70